createdAt,value
2023-04-18T00:00:24.770Z,102116.45
2023-04-18T00:03:16.630Z,102115.49
2023-04-18T00:06:03.616Z,102117.98
2023-04-18T00:08:50.199Z,102113.08
2023-04-18T00:11:36.375Z,102100.90
2023-04-18T00:14:23.167Z,102111.02
2023-04-18T00:17:10.442Z,102112.11
2023-04-18T00:19:58.391Z,102108.91
2023-04-18T00:22:46.486Z,102111.75
2023-04-18T00:25:33.630Z,102112.60
2023-04-18T00:28:20.047Z,102112.25
2023-04-18T00:31:08.315Z,102097.03
2023-04-18T00:33:55.044Z,102111.71
2023-04-18T00:36:43.242Z,102112.90
2023-04-18T00:39:29.999Z,102111.20
2023-04-18T00:42:16.751Z,102109.46
2023-04-18T00:45:03.375Z,102105.35
2023-04-18T00:47:49.874Z,102106.60
2023-04-18T00:50:37.817Z,102105.70
2023-04-18T00:53:24.547Z,102104.45
2023-04-18T00:56:11.776Z,102105.02
2023-04-18T00:58:59.320Z,102100.20
2023-04-18T01:01:46.403Z,102103.33
2023-04-18T01:04:33.096Z,102106.10
2023-04-18T01:07:19.925Z,102107.70
2023-04-18T01:10:08.120Z,102105.07
2023-04-18T01:13:11.776Z,102099.40
2023-04-18T01:15:59.170Z,102107.84
2023-04-18T01:18:46.387Z,102104.79
2023-04-18T01:21:36.189Z,102103.10
2023-04-18T01:24:25.861Z,102099.95
2023-04-18T01:27:16.086Z,102105.36
2023-04-18T01:30:02.671Z,102103.53
2023-04-18T01:32:49.759Z,102103.73
2023-04-18T01:35:37.300Z,102104.56
2023-04-18T01:38:23.686Z,102109.90
2023-04-18T01:41:10.612Z,102113.18
2023-04-18T01:43:57.080Z,102113.46
2023-04-18T01:46:43.498Z,102111.44
2023-04-18T01:49:29.794Z,102112.77
2023-04-18T01:52:17.433Z,102109.23
2023-04-18T01:55:06.040Z,102105.19
2023-04-18T01:57:53.035Z,102102.69
2023-04-18T02:00:39.717Z,102101.17
2023-04-18T02:03:26.242Z,102096.00
2023-04-18T02:06:12.814Z,102102.98
2023-04-18T02:08:59.624Z,102099.38
2023-04-18T02:11:45.918Z,102100.27
2023-04-18T02:14:35.322Z,102100.60
2023-04-18T02:17:23.753Z,102100.02
2023-04-18T02:20:11.050Z,102100.45
2023-04-18T02:23:01.086Z,102107.18
2023-04-18T02:25:49.400Z,102106.31
2023-04-18T02:28:39.280Z,102105.31
2023-04-18T02:31:25.553Z,102105.08
2023-04-18T02:34:12.407Z,102096.24
2023-04-18T02:36:59.902Z,102102.73
2023-04-18T02:39:46.466Z,102100.05
2023-04-18T02:42:33.182Z,102098.58
2023-04-18T02:45:20.828Z,102098.43
2023-04-18T02:48:07.929Z,102100.58
2023-04-18T02:51:03.410Z,102100.84
2023-04-18T02:53:54.972Z,102103.73
2023-04-18T02:56:42.916Z,102101.21
2023-04-18T02:59:42.964Z,102097.19
2023-04-18T03:02:48.202Z,102102.15
2023-04-18T03:05:55.225Z,102102.00
2023-04-18T03:08:42.243Z,102098.85
2023-04-18T03:11:28.864Z,102098.02
2023-04-18T03:14:16.185Z,102096.73
2023-04-18T03:17:08.410Z,102099.66
2023-04-18T03:19:58.655Z,102098.13
2023-04-18T03:22:45.565Z,102091.43
2023-04-18T03:25:32.712Z,102103.08
2023-04-18T03:28:19.271Z,102101.95
2023-04-18T03:31:06.003Z,102093.92
2023-04-18T03:33:53.744Z,102099.23
2023-04-18T03:36:40.840Z,102100.36
2023-04-18T03:39:28.558Z,102099.00
2023-04-18T03:42:16.075Z,102097.62
2023-04-18T03:45:02.850Z,102098.70
2023-04-18T03:47:50.991Z,102099.63
2023-04-18T03:50:37.660Z,102095.66
2023-04-18T03:53:24.730Z,102102.11
2023-04-18T03:56:11.763Z,102100.83
2023-04-18T03:59:10.925Z,102099.56
2023-04-18T04:01:58.283Z,102101.79
2023-04-18T04:04:45.383Z,102104.06
2023-04-18T04:07:33.038Z,102097.87
2023-04-18T04:10:19.969Z,102104.11
2023-04-18T04:13:07.176Z,102109.13
2023-04-18T04:15:56.951Z,102103.45
2023-04-18T04:18:43.902Z,102114.40
2023-04-18T04:21:31.894Z,102110.19
2023-04-18T04:24:18.821Z,102116.92
2023-04-18T04:27:06.446Z,102115.05
2023-04-18T04:29:56.721Z,102117.02
2023-04-18T04:32:44.818Z,102126.55
2023-04-18T04:35:32.190Z,102126.36
2023-04-18T04:38:23.144Z,102128.08
2023-04-18T04:41:11.853Z,102133.14
2023-04-18T04:43:59.656Z,102133.60
2023-04-18T04:46:50.180Z,102132.11
2023-04-18T04:49:39.813Z,102136.79
2023-04-18T04:52:26.533Z,102140.86
2023-04-18T04:55:13.513Z,102141.14
2023-04-18T04:58:00.781Z,102138.45
2023-04-18T05:00:58.851Z,102139.80
2023-04-18T05:03:45.625Z,102143.20
2023-04-18T05:06:32.381Z,102145.16
2023-04-18T05:09:18.994Z,102140.41
2023-04-18T05:12:06.085Z,102141.41
2023-04-18T05:14:52.922Z,102139.97
2023-04-18T05:17:39.407Z,102140.30
2023-04-18T05:20:26.061Z,102130.86
2023-04-18T05:23:13.140Z,102140.16
2023-04-18T05:25:59.771Z,102135.23
2023-04-18T05:28:46.283Z,102131.70
2023-04-18T05:31:33.138Z,102135.59
2023-04-18T05:34:19.857Z,102137.52
2023-04-18T05:37:06.617Z,102138.96
2023-04-18T05:39:52.997Z,102140.23
2023-04-18T05:42:39.419Z,102137.61
2023-04-18T05:45:26.296Z,102140.91
2023-04-18T05:48:13.546Z,102139.30
2023-04-18T05:51:00.496Z,102142.74
2023-04-18T05:53:47.120Z,102141.28
2023-04-18T05:56:33.889Z,102141.23
2023-04-18T05:59:23.159Z,102138.25
2023-04-18T06:02:13.566Z,102139.02
2023-04-18T06:05:01.526Z,102141.32
2023-04-18T06:07:48.695Z,102141.73
2023-04-18T06:10:36.989Z,102141.39
2023-04-18T06:13:25.485Z,102137.20
2023-04-18T06:16:12.502Z,102139.40
2023-04-18T06:19:01.191Z,102141.51
2023-04-18T06:21:49.049Z,102141.21
2023-04-18T06:24:35.727Z,102143.10
2023-04-18T06:27:31.070Z,102139.91
2023-04-18T06:30:22.017Z,102143.75
2023-04-18T06:33:11.065Z,102140.52
2023-04-18T06:35:58.875Z,102143.45
2023-04-18T06:38:45.709Z,102139.13
2023-04-18T06:41:32.175Z,102139.31
2023-04-18T06:44:18.559Z,102142.33
2023-04-18T06:47:06.006Z,102144.44
2023-04-18T06:49:52.590Z,102142.44
2023-04-18T06:52:44.251Z,102142.23
2023-04-18T06:55:30.990Z,102144.11
2023-04-18T06:58:17.862Z,102148.11
2023-04-18T07:01:04.451Z,102148.46
2023-04-18T07:03:51.264Z,102150.58
2023-04-18T07:06:37.754Z,102157.59
2023-04-18T07:09:24.061Z,102157.92
2023-04-18T07:12:10.677Z,102162.22
2023-04-18T07:14:57.406Z,102163.30
2023-04-18T07:17:44.010Z,102165.58
2023-04-18T07:20:30.819Z,102165.00
2023-04-18T07:23:17.350Z,102168.33
2023-04-18T07:26:05.783Z,102172.13
2023-04-18T07:28:52.084Z,102170.74
2023-04-18T07:31:38.746Z,102175.88
2023-04-18T07:34:29.784Z,102178.07
2023-04-18T07:37:18.375Z,102179.64
2023-04-18T07:40:05.706Z,102178.25
2023-04-18T07:42:53.146Z,102184.00
2023-04-18T07:45:39.659Z,102186.67
2023-04-18T07:48:26.145Z,102189.83
2023-04-18T07:51:12.982Z,102191.66
2023-04-18T07:53:59.609Z,102194.33
2023-04-18T07:56:45.817Z,102190.42
2023-04-18T07:59:32.371Z,102192.92
2023-04-18T08:02:20.391Z,102192.35
2023-04-18T08:05:07.970Z,102193.88
2023-04-18T08:07:54.528Z,102191.02
2023-04-18T08:10:41.018Z,102190.17
2023-04-18T08:13:27.962Z,102194.81
2023-04-18T08:16:16.360Z,102187.87
2023-04-18T08:19:03.856Z,102194.11
2023-04-18T08:21:52.001Z,102198.20
2023-04-18T08:24:39.055Z,102194.09
2023-04-18T08:27:25.840Z,102195.97
2023-04-18T08:30:13.558Z,102196.52
2023-04-18T08:33:00.709Z,102195.52
2023-04-18T08:35:47.556Z,102194.27
2023-04-18T08:38:34.285Z,102196.90
2023-04-18T08:41:23.562Z,102192.95
2023-04-18T08:44:10.043Z,102199.79
2023-04-18T08:46:57.791Z,102199.09
2023-04-18T08:49:46.673Z,102201.16
2023-04-18T08:52:36.161Z,102196.91
2023-04-18T08:55:24.665Z,102197.94
2023-04-18T08:58:12.753Z,102189.54
2023-04-18T09:00:59.719Z,102189.41
2023-04-18T09:03:46.433Z,102193.65
2023-04-18T09:06:33.605Z,102195.12
2023-04-18T09:09:27.325Z,102200.37
2023-04-18T09:12:18.296Z,102196.02
2023-04-18T09:15:15.704Z,102197.63
2023-04-18T09:18:03.212Z,102194.84
2023-04-18T09:20:50.078Z,102191.27
2023-04-18T09:23:38.655Z,102195.86
2023-04-18T09:26:37.724Z,102193.63
2023-04-18T09:29:47.090Z,102187.98
2023-04-18T09:32:33.789Z,102186.89
2023-04-18T09:35:25.956Z,102187.20
2023-04-18T09:38:12.299Z,102184.83
2023-04-18T09:41:09.256Z,102188.50
2023-04-18T09:44:14.609Z,102185.36
2023-04-18T09:47:02.547Z,102177.89
2023-04-18T09:49:49.004Z,102185.25
2023-04-18T09:52:38.539Z,102177.73
2023-04-18T09:55:25.451Z,102187.08
2023-04-18T09:58:13.306Z,102189.31
2023-04-18T10:01:00.763Z,102182.72
2023-04-18T10:03:51.327Z,102183.02
2023-04-18T10:06:39.910Z,102179.48
2023-04-18T10:09:31.522Z,102181.06
2023-04-18T10:12:18.853Z,102173.08
2023-04-18T10:15:06.761Z,102171.83
2023-04-18T10:18:03.765Z,102168.04
2023-04-18T10:21:01.938Z,102170.21
2023-04-18T10:23:48.907Z,102166.27
2023-04-18T10:26:47.239Z,102169.00
2023-04-18T10:29:50.685Z,102157.84
2023-04-18T10:32:36.990Z,102160.20
2023-04-18T10:35:23.305Z,102158.89
2023-04-18T10:38:17.296Z,102157.98
2023-04-18T10:41:26.100Z,102150.77
2023-04-18T10:44:14.902Z,102152.59
2023-04-18T10:47:02.633Z,102153.04
2023-04-18T10:49:57.040Z,102150.40
2023-04-18T10:52:43.781Z,102140.68
2023-04-18T10:55:31.258Z,102149.30
2023-04-18T10:58:17.848Z,102148.73
2023-04-18T11:01:06.130Z,102142.14
2023-04-18T11:03:53.485Z,102147.09
2023-04-18T11:06:50.243Z,102142.08
2023-04-18T11:09:38.565Z,102141.67
2023-04-18T11:12:24.862Z,102144.20
2023-04-18T11:15:17.620Z,102144.35
2023-04-18T11:18:05.094Z,102139.86
2023-04-18T11:20:52.527Z,102141.10
2023-04-18T11:23:41.187Z,102139.46
2023-04-18T11:26:29.211Z,102136.56
2023-04-18T11:29:17.932Z,102134.95
2023-04-18T11:32:08.959Z,102123.39
2023-04-18T11:34:55.739Z,102126.36
2023-04-18T11:37:45.757Z,102125.34
2023-04-18T11:40:32.129Z,102124.48
2023-04-18T11:43:25.456Z,102123.01
2023-04-18T11:46:13.319Z,102118.04
2023-04-18T11:48:59.653Z,102119.23
2023-04-18T11:51:47.554Z,102117.02
2023-04-18T11:54:44.956Z,102114.97
2023-04-18T11:57:33.043Z,102112.52
2023-04-18T12:00:30.947Z,102112.67
2023-04-18T12:03:20.848Z,102110.13
2023-04-18T12:06:07.546Z,102109.02
2023-04-18T12:09:02.867Z,102100.07
2023-04-18T12:12:07.349Z,102100.73
2023-04-18T12:15:03.277Z,102100.11
2023-04-18T12:17:52.541Z,102096.02
2023-04-18T12:20:46.725Z,102087.27
2023-04-18T12:23:38.866Z,102087.14
2023-04-18T12:26:26.843Z,102092.76
2023-04-18T12:29:13.834Z,102083.61
2023-04-18T12:32:00.689Z,102083.66
2023-04-18T12:34:47.332Z,102075.11
2023-04-18T12:37:33.928Z,102074.48
2023-04-18T12:40:22.939Z,102083.02
2023-04-18T12:43:09.791Z,102079.63
2023-04-18T12:45:56.700Z,102078.98
2023-04-18T12:48:42.847Z,102073.34
2023-04-18T12:51:29.046Z,102072.67
2023-04-18T12:54:15.735Z,102070.89
2023-04-18T12:57:03.294Z,102070.42
2023-04-18T12:59:49.899Z,102065.29
2023-04-18T13:02:50.725Z,102066.23
2023-04-18T13:05:37.208Z,102065.11
2023-04-18T13:08:23.867Z,102056.11
2023-04-18T13:11:10.254Z,102059.55
2023-04-18T13:13:56.977Z,102055.49
2023-04-18T13:16:44.226Z,102057.55
2023-04-18T13:19:30.781Z,102047.90
2023-04-18T13:22:20.052Z,102041.96
2023-04-18T13:25:08.456Z,102029.05
2023-04-18T13:27:55.268Z,102029.95
2023-04-18T13:30:41.767Z,102034.61
2023-04-18T13:33:28.094Z,102031.15
2023-04-18T13:36:14.563Z,102031.66
2023-04-18T13:39:02.151Z,102031.52
2023-04-18T13:41:48.619Z,102030.32
2023-04-18T13:44:36.670Z,102025.63
2023-04-18T13:47:23.531Z,102015.73
2023-04-18T13:50:11.087Z,102009.01
2023-04-18T13:52:57.740Z,102004.36
2023-04-18T13:55:44.406Z,102006.30
2023-04-18T13:58:30.997Z,102008.24
2023-04-18T14:01:17.724Z,102008.18
2023-04-18T14:04:04.276Z,102005.89
2023-04-18T14:06:51.447Z,102000.32
2023-04-18T14:09:38.087Z,101995.62
2023-04-18T14:12:50.059Z,101993.91
2023-04-18T14:19:04.294Z,102003.88
2023-04-18T14:21:50.922Z,102001.27
2023-04-18T14:24:37.351Z,101991.91
2023-04-18T14:27:25.542Z,101999.67
2023-04-18T14:30:12.648Z,101999.02
2023-04-18T14:32:58.877Z,101998.93
2023-04-18T14:35:46.037Z,102000.00
2023-04-18T14:38:33.289Z,102004.54
2023-04-18T14:41:19.568Z,102002.08
2023-04-18T14:44:06.753Z,102003.86
2023-04-18T14:46:53.294Z,102001.12
2023-04-18T14:49:40.296Z,102000.42
2023-04-18T14:52:26.714Z,101999.46
2023-04-18T14:55:13.691Z,102004.07
2023-04-18T14:58:01.327Z,102005.39
2023-04-18T15:00:49.109Z,102002.48
2023-04-18T15:03:35.852Z,101998.25
2023-04-18T15:06:23.240Z,101998.77
2023-04-18T15:09:09.883Z,101999.52
2023-04-18T15:11:58.248Z,101999.27
2023-04-18T15:14:45.224Z,102001.70
2023-04-18T15:17:31.869Z,102007.23
2023-04-18T15:20:18.790Z,102001.98
2023-04-18T15:23:05.304Z,102003.67
2023-04-18T15:25:51.621Z,102007.16
2023-04-18T15:28:37.950Z,102008.92
2023-04-18T15:31:24.616Z,102007.32
2023-04-18T15:34:11.873Z,102009.38
2023-04-18T15:36:58.716Z,102009.52
2023-04-18T15:39:45.295Z,102008.25
2023-04-18T15:42:31.649Z,102014.30
2023-04-18T15:45:18.538Z,102012.73
2023-04-18T15:48:05.604Z,102012.16
2023-04-18T15:50:52.606Z,102011.20
2023-04-18T15:53:39.252Z,102010.06
2023-04-18T15:56:26.870Z,102018.60
2023-04-18T15:59:13.678Z,102020.36
2023-04-18T16:02:00.660Z,102021.40
2023-04-18T16:04:47.140Z,102019.63
2023-04-18T16:07:33.915Z,102020.45
2023-04-18T16:10:20.606Z,102020.48
2023-04-18T16:13:06.873Z,102019.59
2023-04-18T16:15:53.101Z,102021.46
2023-04-18T16:18:40.588Z,102024.63
2023-04-18T16:21:28.238Z,102019.53
2023-04-18T16:24:18.408Z,102025.17
2023-04-18T16:27:05.264Z,102021.70
2023-04-18T16:29:51.483Z,102016.05
2023-04-18T16:32:38.861Z,102014.13
2023-04-18T16:35:25.590Z,102024.52
2023-04-18T16:38:12.075Z,102032.83
2023-04-18T16:40:59.676Z,102032.58
2023-04-18T16:43:46.539Z,102038.50
2023-04-18T16:46:33.320Z,102035.30
2023-04-18T16:49:20.567Z,102042.73
2023-04-18T16:52:07.371Z,102046.73
2023-04-18T16:54:53.821Z,102047.94
2023-04-18T16:57:40.402Z,102046.52
2023-04-18T17:00:27.338Z,102045.80
2023-04-18T17:03:14.372Z,102049.34
2023-04-18T17:06:01.629Z,102053.98
2023-04-18T17:08:49.250Z,102058.09
2023-04-18T17:11:39.634Z,102058.20
2023-04-18T17:14:26.730Z,102054.79
2023-04-18T17:17:13.290Z,102052.25
2023-04-18T17:20:00.027Z,102057.48
2023-04-18T17:22:46.687Z,102059.41
2023-04-18T17:25:33.136Z,102059.68
2023-04-18T17:28:21.714Z,102062.41
2023-04-18T17:31:08.306Z,102060.09
2023-04-18T17:33:54.927Z,102067.54
2023-04-18T17:36:41.874Z,102070.50
2023-04-18T17:39:28.555Z,102060.92
2023-04-18T17:42:15.398Z,102064.64
2023-04-18T17:45:03.759Z,102066.39
2023-04-18T17:47:50.942Z,102065.48
2023-04-18T17:50:38.097Z,102076.12
2023-04-18T17:53:24.539Z,102079.30
2023-04-18T17:56:11.610Z,102080.60
2023-04-18T17:58:57.880Z,102073.83
2023-04-18T18:01:44.251Z,102078.39
2023-04-18T18:04:31.041Z,102079.92
2023-04-18T18:07:18.448Z,102081.34
2023-04-18T18:10:05.496Z,102080.29
2023-04-18T18:12:51.859Z,102078.71
2023-04-18T18:15:39.046Z,102083.69
2023-04-18T18:18:26.366Z,102084.75
2023-04-18T18:21:12.954Z,102083.80
2023-04-18T18:23:59.307Z,102079.88
2023-04-18T18:26:45.869Z,102081.44
2023-04-18T18:29:32.254Z,102079.09
2023-04-18T18:32:18.869Z,102081.91
2023-04-18T18:35:06.245Z,102085.51
2023-04-18T18:37:52.813Z,102082.55
2023-04-18T18:40:39.543Z,102083.38
2023-04-18T18:43:26.558Z,102088.57
2023-04-18T18:46:15.029Z,102089.50
2023-04-18T18:49:01.664Z,102083.06
2023-04-18T18:51:48.451Z,102083.95
2023-04-18T18:54:35.028Z,102081.68
2023-04-18T18:57:21.626Z,102075.52
2023-04-18T19:00:11.869Z,102079.23
2023-04-18T19:02:58.266Z,102081.88
2023-04-18T19:05:46.421Z,102078.63
2023-04-18T19:08:33.835Z,102076.60
2023-04-18T19:11:21.175Z,102076.09
2023-04-18T19:14:07.829Z,102069.14
2023-04-18T19:16:56.042Z,102073.64
2023-04-18T19:19:42.809Z,102073.11
2023-04-18T19:22:30.008Z,102071.48
2023-04-18T19:25:16.709Z,102072.00
2023-04-18T19:28:05.834Z,102072.61
2023-04-18T19:30:53.164Z,102068.92
2023-04-18T19:33:39.386Z,102068.52
2023-04-18T19:36:26.734Z,102072.30
2023-04-18T19:39:13.779Z,102065.99
2023-04-18T19:42:00.648Z,102067.80
2023-04-18T19:44:46.970Z,102061.95
2023-04-18T19:47:34.036Z,102066.38
2023-04-18T19:50:20.460Z,102063.35
2023-04-18T19:53:06.897Z,102062.90
2023-04-18T19:55:55.043Z,102059.96
2023-04-18T19:58:46.224Z,102059.13
2023-04-18T20:01:32.919Z,102062.23
2023-04-18T20:04:19.576Z,102060.63
2023-04-18T20:07:06.428Z,102057.33
2023-04-18T20:09:53.126Z,102058.91
2023-04-18T20:12:39.798Z,102058.10
2023-04-18T20:15:26.156Z,102056.31
2023-04-18T20:18:12.678Z,102059.01
2023-04-18T20:20:58.761Z,102059.09
2023-04-18T20:23:45.314Z,102051.52
2023-04-18T20:26:31.810Z,102053.09
2023-04-18T20:29:18.334Z,102056.77
2023-04-18T20:32:05.809Z,102044.46
2023-04-18T20:34:52.287Z,102052.22
2023-04-18T20:37:39.276Z,102050.50
2023-04-18T20:40:26.152Z,102053.09
2023-04-18T20:43:13.560Z,102050.27
2023-04-18T20:46:01.003Z,102045.52
2023-04-18T20:48:47.545Z,102044.31
2023-04-18T20:51:38.134Z,102042.34
2023-04-18T20:54:24.690Z,102035.41
2023-04-18T20:57:11.114Z,102033.85
2023-04-18T20:59:58.672Z,102032.50
2023-04-18T21:02:45.259Z,102036.42
2023-04-18T21:05:32.477Z,102033.02
2023-04-18T21:08:19.522Z,102030.30
2023-04-18T21:11:07.128Z,102026.43
2023-04-18T21:13:53.497Z,102027.59
2023-04-18T21:16:40.083Z,102023.05
2023-04-18T21:19:27.144Z,102026.64
2023-04-18T21:22:15.270Z,102028.89
2023-04-18T21:25:01.771Z,102026.86
2023-04-18T21:27:50.782Z,102028.45
2023-04-18T21:30:37.320Z,102026.06
2023-04-18T21:33:24.566Z,102019.40
2023-04-18T21:36:11.180Z,102019.26
2023-04-18T21:38:59.634Z,102011.42
2023-04-18T21:41:45.917Z,102009.06
2023-04-18T21:44:32.829Z,102016.96
2023-04-18T21:47:19.713Z,102015.27
2023-04-18T21:50:07.265Z,102014.36
2023-04-18T21:52:53.380Z,102012.56
2023-04-18T21:55:40.168Z,102012.51
2023-04-18T21:58:27.486Z,102007.23
2023-04-18T22:01:13.757Z,102006.58
2023-04-18T22:04:02.128Z,102005.67
2023-04-18T22:06:48.823Z,101999.53
2023-04-18T22:09:36.385Z,102000.36
2023-04-18T22:12:22.665Z,101992.38
2023-04-18T22:15:10.426Z,101991.70
2023-04-18T22:17:57.866Z,101987.01
2023-04-18T22:20:45.253Z,101985.14
2023-04-18T22:23:32.101Z,101979.89
2023-04-18T22:26:18.266Z,101978.02
2023-04-18T22:29:05.298Z,101974.67
2023-04-18T22:31:51.767Z,101977.50
2023-04-18T22:34:37.969Z,101967.26
2023-04-18T22:37:24.627Z,101975.51
2023-04-18T22:40:12.515Z,101972.97
2023-04-18T22:42:59.206Z,101970.50
2023-04-18T22:45:45.631Z,101970.61
2023-04-18T22:48:31.927Z,101964.40
2023-04-18T22:51:18.818Z,101959.98
2023-04-18T22:54:05.283Z,101956.42
2023-04-18T22:56:51.718Z,101954.66
2023-04-18T22:59:38.066Z,101953.14
2023-04-18T23:02:24.786Z,101950.83
2023-04-18T23:05:11.949Z,101942.92
2023-04-18T23:08:00.219Z,101939.77
2023-04-18T23:10:46.801Z,101938.38
2023-04-18T23:13:33.246Z,101940.08
2023-04-18T23:16:19.829Z,101937.42
2023-04-18T23:19:06.251Z,101931.20
2023-04-18T23:21:52.605Z,101931.24
2023-04-18T23:24:39.007Z,101928.23
2023-04-18T23:27:25.401Z,101920.10
2023-04-18T23:30:12.950Z,101913.91
2023-04-18T23:32:59.533Z,101901.31
2023-04-18T23:35:46.154Z,101903.89
2023-04-18T23:38:33.469Z,101900.73
2023-04-18T23:41:20.537Z,101895.64
2023-04-18T23:44:07.233Z,101895.05
2023-04-18T23:46:53.905Z,101893.36
2023-04-18T23:49:40.556Z,101900.73
2023-04-18T23:52:27.398Z,101896.90
2023-04-18T23:55:14.687Z,101896.52
2023-04-18T23:58:01.406Z,101894.55
